sensor_id;sensor_type;location;lat;lon;timestamp;pressure;altitude;pressure_sealevel;temperature;humidity
61086;BME280;46967;48.876;2.136;2023-12-20T00:01:18;102036.69;;;33.70;18.87
61086;BME280;46967;48.876;2.136;2023-12-20T00:03:43;102030.31;;;34.52;18.17
61086;BME280;46967;48.876;2.136;2023-12-20T00:06:09;102039.88;;;33.32;18.94
61086;BME280;46967;48.876;2.136;2023-12-20T00:08:34;102049.22;;;31.64;20.07
61086;BME280;46967;48.876;2.136;2023-12-20T00:11:00;102050.38;;;32.24;19.59
61086;BME280;46967;48.876;2.136;2023-12-20T00:13:25;102057.78;;;31.59;19.66
61086;BME280;46967;48.876;2.136;2023-12-20T00:15:50;102060.69;;;32.71;18.81
61086;BME280;46967;48.876;2.136;2023-12-20T00:18:15;102060.06;;;31.09;20.13
61086;BME280;46967;48.876;2.136;2023-12-20T00:20:41;102056.53;;;33.44;17.87
61086;BME280;46967;48.876;2.136;2023-12-20T00:23:06;102068.75;;;31.92;18.46
61086;BME280;46967;48.876;2.136;2023-12-20T00:25:33;102057.88;;;32.46;18.00
61086;BME280;46967;48.876;2.136;2023-12-20T00:27:58;102073.69;;;31.79;18.71
61086;BME280;46967;48.876;2.136;2023-12-20T00:30:24;102064.97;;;30.85;19.64
61086;BME280;46967;48.876;2.136;2023-12-20T00:32:49;102072.97;;;30.95;19.47
61086;BME280;46967;48.876;2.136;2023-12-20T00:35:15;102069.09;;;31.97;18.21
61086;BME280;46967;48.876;2.136;2023-12-20T00:37:42;102073.59;;;32.33;17.93
61086;BME280;46967;48.876;2.136;2023-12-20T00:40:07;102069.78;;;32.78;17.10
61086;BME280;46967;48.876;2.136;2023-12-20T00:42:33;102069.28;;;33.34;16.89
61086;BME280;46967;48.876;2.136;2023-12-20T00:44:59;102068.81;;;33.55;16.54
61086;BME280;46967;48.876;2.136;2023-12-20T00:47:24;102065.53;;;32.33;16.90
61086;BME280;46967;48.876;2.136;2023-12-20T00:49:49;102061.50;;;31.49;17.62
61086;BME280;46967;48.876;2.136;2023-12-20T00:52:15;102062.63;;;33.03;16.45
61086;BME280;46967;48.876;2.136;2023-12-20T00:54:42;102067.78;;;33.31;16.05
61086;BME280;46967;48.876;2.136;2023-12-20T00:57:07;102067.63;;;32.82;16.40
61086;BME280;46967;48.876;2.136;2023-12-20T00:59:33;102081.91;;;32.56;16.92
61086;BME280;46967;48.876;2.136;2023-12-20T01:01:58;102085.19;;;33.11;16.09
61086;BME280;46967;48.876;2.136;2023-12-20T01:04:23;102066.25;;;33.37;16.03
61086;BME280;46967;48.876;2.136;2023-12-20T01:06:48;102073.41;;;33.12;16.28
61086;BME280;46967;48.876;2.136;2023-12-20T01:09:14;102085.41;;;32.75;16.20
61086;BME280;46967;48.876;2.136;2023-12-20T01:11:39;102083.16;;;33.13;15.87
61086;BME280;46967;48.876;2.136;2023-12-20T01:14:04;102085.59;;;33.32;16.28
61086;BME280;46967;48.876;2.136;2023-12-20T01:16:30;102099.41;;;33.37;16.07
61086;BME280;46967;48.876;2.136;2023-12-20T01:18:55;102096.78;;;33.11;16.51
61086;BME280;46967;48.876;2.136;2023-12-20T01:21:21;102103.97;;;33.53;15.80
61086;BME280;46967;48.876;2.136;2023-12-20T01:23:46;102105.81;;;33.61;15.57
61086;BME280;46967;48.876;2.136;2023-12-20T01:26:11;102107.47;;;33.54;16.09
61086;BME280;46967;48.876;2.136;2023-12-20T01:28:37;102104.50;;;33.14;15.96
61086;BME280;46967;48.876;2.136;2023-12-20T01:31:03;102103.28;;;33.00;16.18
61086;BME280;46967;48.876;2.136;2023-12-20T01:33:29;102099.88;;;33.25;15.94
61086;BME280;46967;48.876;2.136;2023-12-20T01:35:54;102093.41;;;33.09;16.17
61086;BME280;46967;48.876;2.136;2023-12-20T01:38:19;102092.81;;;32.81;16.35
61086;BME280;46967;48.876;2.136;2023-12-20T01:40:45;102089.00;;;32.92;16.48
61086;BME280;46967;48.876;2.136;2023-12-20T01:43:10;102093.41;;;33.09;16.36
61086;BME280;46967;48.876;2.136;2023-12-20T01:45:38;102096.16;;;32.83;16.41
61086;BME280;46967;48.876;2.136;2023-12-20T01:48:05;102090.38;;;33.04;16.17
61086;BME280;46967;48.876;2.136;2023-12-20T01:50:31;102094.75;;;33.13;16.11
61086;BME280;46967;48.876;2.136;2023-12-20T01:52:58;102092.16;;;33.30;16.01
61086;BME280;46967;48.876;2.136;2023-12-20T01:55:25;102094.81;;;33.21;16.01
61086;BME280;46967;48.876;2.136;2023-12-20T01:57:51;102102.66;;;33.15;16.31
61086;BME280;46967;48.876;2.136;2023-12-20T02:00:17;102108.06;;;32.72;16.27
61086;BME280;46967;48.876;2.136;2023-12-20T02:02:44;102109.81;;;32.90;16.32
61086;BME280;46967;48.876;2.136;2023-12-20T02:05:10;102107.13;;;32.90;16.24
61086;BME280;46967;48.876;2.136;2023-12-20T02:07:36;102121.63;;;33.05;16.27
61086;BME280;46967;48.876;2.136;2023-12-20T02:10:02;102133.44;;;32.78;16.38
61086;BME280;46967;48.876;2.136;2023-12-20T02:12:29;102136.44;;;32.75;16.02
61086;BME280;46967;48.876;2.136;2023-12-20T02:14:54;102133.09;;;32.73;16.17
61086;BME280;46967;48.876;2.136;2023-12-20T02:17:20;102122.56;;;32.88;15.93
61086;BME280;46967;48.876;2.136;2023-12-20T02:19:45;102131.41;;;32.45;16.49
61086;BME280;46967;48.876;2.136;2023-12-20T02:22:11;102135.41;;;32.67;16.13
61086;BME280;46967;48.876;2.136;2023-12-20T02:24:36;102134.50;;;32.85;16.33
61086;BME280;46967;48.876;2.136;2023-12-20T02:27:02;102133.31;;;32.88;16.26
61086;BME280;46967;48.876;2.136;2023-12-20T02:29:28;102141.63;;;33.02;15.92
61086;BME280;46967;48.876;2.136;2023-12-20T02:31:53;102137.84;;;33.21;15.83
61086;BME280;46967;48.876;2.136;2023-12-20T02:34:18;102143.31;;;33.12;15.86
61086;BME280;46967;48.876;2.136;2023-12-20T02:36:44;102144.19;;;33.12;15.90
61086;BME280;46967;48.876;2.136;2023-12-20T02:39:09;102140.91;;;32.92;16.14
61086;BME280;46967;48.876;2.136;2023-12-20T02:41:34;102144.47;;;33.01;15.73
61086;BME280;46967;48.876;2.136;2023-12-20T02:44:01;102147.28;;;32.91;16.03
61086;BME280;46967;48.876;2.136;2023-12-20T02:46:26;102154.31;;;32.84;15.78
61086;BME280;46967;48.876;2.136;2023-12-20T02:48:52;102146.41;;;32.82;15.94
61086;BME280;46967;48.876;2.136;2023-12-20T02:51:17;102147.56;;;32.80;16.01
61086;BME280;46967;48.876;2.136;2023-12-20T02:53:42;102149.00;;;32.66;16.07
61086;BME280;46967;48.876;2.136;2023-12-20T02:56:08;102145.03;;;32.52;16.31
61086;BME280;46967;48.876;2.136;2023-12-20T02:58:33;102145.81;;;32.44;16.38
61086;BME280;46967;48.876;2.136;2023-12-20T03:00:58;102143.81;;;32.46;16.33
61086;BME280;46967;48.876;2.136;2023-12-20T03:03:24;102134.31;;;32.60;15.83
61086;BME280;46967;48.876;2.136;2023-12-20T03:05:49;102152.94;;;32.54;16.11
61086;BME280;46967;48.876;2.136;2023-12-20T03:08:14;102149.78;;;32.58;15.95
61086;BME280;46967;48.876;2.136;2023-12-20T03:10:40;102159.44;;;32.51;16.02
61086;BME280;46967;48.876;2.136;2023-12-20T03:13:06;102162.66;;;32.28;16.25
61086;BME280;46967;48.876;2.136;2023-12-20T03:15:31;102156.47;;;31.28;17.25
61086;BME280;46967;48.876;2.136;2023-12-20T03:17:56;102140.59;;;31.99;16.43
61086;BME280;46967;48.876;2.136;2023-12-20T03:20:24;102141.91;;;32.39;16.11
61086;BME280;46967;48.876;2.136;2023-12-20T03:22:51;102145.91;;;32.61;16.01
61086;BME280;46967;48.876;2.136;2023-12-20T03:25:16;102143.19;;;32.79;16.12
61086;BME280;46967;48.876;2.136;2023-12-20T03:27:41;102137.03;;;32.86;15.79
61086;BME280;46967;48.876;2.136;2023-12-20T03:30:07;102141.66;;;32.76;15.76
61086;BME280;46967;48.876;2.136;2023-12-20T03:32:32;102141.19;;;32.81;15.78
61086;BME280;46967;48.876;2.136;2023-12-20T03:34:58;102150.63;;;32.85;15.88
61086;BME280;46967;48.876;2.136;2023-12-20T03:37:23;102142.63;;;32.67;16.18
61086;BME280;46967;48.876;2.136;2023-12-20T03:39:48;102138.28;;;32.66;16.09
61086;BME280;46967;48.876;2.136;2023-12-20T03:42:14;102146.47;;;32.64;16.07
61086;BME280;46967;48.876;2.136;2023-12-20T03:44:39;102147.03;;;32.50;16.18
61086;BME280;46967;48.876;2.136;2023-12-20T03:47:05;102154.59;;;32.55;16.17
61086;BME280;46967;48.876;2.136;2023-12-20T03:49:31;102152.25;;;32.52;16.00
61086;BME280;46967;48.876;2.136;2023-12-20T03:51:56;102166.00;;;32.48;16.19
61086;BME280;46967;48.876;2.136;2023-12-20T03:54:21;102158.00;;;31.94;16.60
61086;BME280;46967;48.876;2.136;2023-12-20T03:56:47;102157.13;;;32.30;16.54
61086;BME280;46967;48.876;2.136;2023-12-20T03:59:12;102154.06;;;32.07;16.41
61086;BME280;46967;48.876;2.136;2023-12-20T04:01:37;102151.16;;;32.36;16.19
61086;BME280;46967;48.876;2.136;2023-12-20T04:04:03;102155.22;;;32.22;16.27
61086;BME280;46967;48.876;2.136;2023-12-20T04:06:28;102159.78;;;32.22;16.14
61086;BME280;46967;48.876;2.136;2023-12-20T04:08:53;102145.94;;;32.35;16.16
61086;BME280;46967;48.876;2.136;2023-12-20T04:11:19;102141.91;;;32.39;16.34
61086;BME280;46967;48.876;2.136;2023-12-20T04:13:44;102146.97;;;32.16;16.39
61086;BME280;46967;48.876;2.136;2023-12-20T04:16:09;102148.94;;;32.31;16.08
61086;BME280;46967;48.876;2.136;2023-12-20T04:18:35;102149.03;;;32.22;16.44
61086;BME280;46967;48.876;2.136;2023-12-20T04:21:01;102154.28;;;32.31;16.05
61086;BME280;46967;48.876;2.136;2023-12-20T04:23:26;102165.41;;;32.37;16.12
61086;BME280;46967;48.876;2.136;2023-12-20T04:25:53;102162.19;;;32.33;16.15
61086;BME280;46967;48.876;2.136;2023-12-20T04:28:18;102160.53;;;32.14;16.11
61086;BME280;46967;48.876;2.136;2023-12-20T04:30:43;102166.38;;;32.09;16.13
61086;BME280;46967;48.876;2.136;2023-12-20T04:33:09;102164.75;;;31.99;16.58
61086;BME280;46967;48.876;2.136;2023-12-20T04:35:34;102157.16;;;31.94;16.25
61086;BME280;46967;48.876;2.136;2023-12-20T04:37:59;102163.13;;;31.42;17.26
61086;BME280;46967;48.876;2.136;2023-12-20T04:40:25;102178.06;;;31.54;16.85
61086;BME280;46967;48.876;2.136;2023-12-20T04:42:50;102163.00;;;31.43;16.73
61086;BME280;46967;48.876;2.136;2023-12-20T04:45:15;102163.91;;;31.62;16.83
61086;BME280;46967;48.876;2.136;2023-12-20T04:47:42;102155.41;;;31.67;16.93
61086;BME280;46967;48.876;2.136;2023-12-20T04:50:07;102155.81;;;31.44;17.12
61086;BME280;46967;48.876;2.136;2023-12-20T04:52:33;102159.41;;;31.81;16.63
61086;BME280;46967;48.876;2.136;2023-12-20T04:54:58;102166.06;;;31.58;17.05
61086;BME280;46967;48.876;2.136;2023-12-20T04:57:24;102163.34;;;31.31;16.94
61086;BME280;46967;48.876;2.136;2023-12-20T04:59:50;102156.06;;;31.69;16.46
61086;BME280;46967;48.876;2.136;2023-12-20T05:02:15;102166.63;;;31.52;16.86
61086;BME280;46967;48.876;2.136;2023-12-20T05:04:40;102169.19;;;31.72;16.68
61086;BME280;46967;48.876;2.136;2023-12-20T05:07:06;102166.16;;;31.11;17.27
61086;BME280;46967;48.876;2.136;2023-12-20T05:09:32;102166.44;;;31.64;16.91
61086;BME280;46967;48.876;2.136;2023-12-20T05:11:57;102171.41;;;31.76;16.36
61086;BME280;46967;48.876;2.136;2023-12-20T05:14:22;102164.16;;;31.87;16.32
61086;BME280;46967;48.876;2.136;2023-12-20T05:16:48;102162.25;;;31.51;16.87
61086;BME280;46967;48.876;2.136;2023-12-20T05:19:13;102162.69;;;31.56;16.67
61086;BME280;46967;48.876;2.136;2023-12-20T05:21:39;102168.41;;;31.34;16.82
61086;BME280;46967;48.876;2.136;2023-12-20T05:24:05;102168.19;;;31.55;16.65
61086;BME280;46967;48.876;2.136;2023-12-20T05:26:30;102166.88;;;31.59;16.85
61086;BME280;46967;48.876;2.136;2023-12-20T05:28:55;102172.13;;;31.51;16.55
61086;BME280;46967;48.876;2.136;2023-12-20T05:31:21;102167.53;;;31.43;16.50
61086;BME280;46967;48.876;2.136;2023-12-20T05:33:46;102174.16;;;31.67;16.42
61086;BME280;46967;48.876;2.136;2023-12-20T05:36:12;102173.56;;;31.45;16.67
61086;BME280;46967;48.876;2.136;2023-12-20T05:38:39;102175.38;;;30.89;17.05
61086;BME280;46967;48.876;2.136;2023-12-20T05:41:04;102175.63;;;30.29;18.02
61086;BME280;46967;48.876;2.136;2023-12-20T05:43:30;102168.44;;;30.59;17.85
61086;BME280;46967;48.876;2.136;2023-12-20T05:45:55;102177.25;;;30.69;17.39
61086;BME280;46967;48.876;2.136;2023-12-20T05:48:20;102172.81;;;30.30;17.59
61086;BME280;46967;48.876;2.136;2023-12-20T05:50:45;102185.63;;;29.97;17.95
61086;BME280;46967;48.876;2.136;2023-12-20T05:53:11;102187.66;;;30.92;17.07
61086;BME280;46967;48.876;2.136;2023-12-20T05:55:36;102185.09;;;31.00;17.37
61086;BME280;46967;48.876;2.136;2023-12-20T05:58:02;102187.94;;;30.88;17.40
61086;BME280;46967;48.876;2.136;2023-12-20T06:00:28;102180.44;;;30.25;17.96
61086;BME280;46967;48.876;2.136;2023-12-20T06:02:53;102181.34;;;30.73;17.63
61086;BME280;46967;48.876;2.136;2023-12-20T06:05:18;102178.88;;;30.89;17.13
61086;BME280;46967;48.876;2.136;2023-12-20T06:07:45;102186.06;;;30.22;17.89
61086;BME280;46967;48.876;2.136;2023-12-20T06:10:12;102191.44;;;30.99;17.29
61086;BME280;46967;48.876;2.136;2023-12-20T06:12:39;102203.28;;;31.06;17.04
61086;BME280;46967;48.876;2.136;2023-12-20T06:15:04;102209.34;;;30.41;17.47
61086;BME280;46967;48.876;2.136;2023-12-20T06:17:31;102207.09;;;31.03;17.14
61086;BME280;46967;48.876;2.136;2023-12-20T06:19:56;102212.75;;;30.91;17.42
61086;BME280;46967;48.876;2.136;2023-12-20T06:22:22;102201.03;;;31.29;17.35
61086;BME280;46967;48.876;2.136;2023-12-20T06:24:47;102208.09;;;29.66;18.18
61086;BME280;46967;48.876;2.136;2023-12-20T06:27:12;102206.34;;;30.05;18.43
61086;BME280;46967;48.876;2.136;2023-12-20T06:29:38;102203.09;;;30.21;17.93
61086;BME280;46967;48.876;2.136;2023-12-20T06:32:03;102203.41;;;30.38;17.67
61086;BME280;46967;48.876;2.136;2023-12-20T06:34:29;102210.63;;;30.84;17.22
61086;BME280;46967;48.876;2.136;2023-12-20T06:36:54;102202.94;;;30.71;17.31
61086;BME280;46967;48.876;2.136;2023-12-20T06:39:19;102199.78;;;30.86;17.18
61086;BME280;46967;48.876;2.136;2023-12-20T06:41:45;102201.13;;;30.62;17.60
61086;BME280;46967;48.876;2.136;2023-12-20T06:44:10;102209.25;;;30.70;17.56
61086;BME280;46967;48.876;2.136;2023-12-20T06:46:35;102210.28;;;30.69;17.72
61086;BME280;46967;48.876;2.136;2023-12-20T06:49:01;102207.31;;;30.53;17.51
61086;BME280;46967;48.876;2.136;2023-12-20T06:51:26;102205.06;;;30.29;18.02
61086;BME280;46967;48.876;2.136;2023-12-20T06:53:52;102205.59;;;30.71;17.71
61086;BME280;46967;48.876;2.136;2023-12-20T06:56:17;102208.75;;;30.38;17.96
61086;BME280;46967;48.876;2.136;2023-12-20T06:58:43;102216.25;;;29.64;18.81
61086;BME280;46967;48.876;2.136;2023-12-20T07:01:15;102209.44;;;30.10;18.47
61086;BME280;46967;48.876;2.136;2023-12-20T07:03:41;102206.75;;;30.59;18.01
61086;BME280;46967;48.876;2.136;2023-12-20T07:06:06;102212.41;;;30.17;18.28
61086;BME280;46967;48.876;2.136;2023-12-20T07:08:32;102206.63;;;29.83;18.49
61086;BME280;46967;48.876;2.136;2023-12-20T07:10:58;102197.84;;;30.68;17.71
61086;BME280;46967;48.876;2.136;2023-12-20T07:13:23;102201.19;;;31.00;17.43
61086;BME280;46967;48.876;2.136;2023-12-20T07:15:48;102214.91;;;30.77;17.72
61086;BME280;46967;48.876;2.136;2023-12-20T07:18:14;102218.56;;;30.76;17.67
61086;BME280;46967;48.876;2.136;2023-12-20T07:20:39;102221.47;;;30.93;17.58
61086;BME280;46967;48.876;2.136;2023-12-20T07:23:04;102221.22;;;29.78;18.71
61086;BME280;46967;48.876;2.136;2023-12-20T07:25:30;102223.13;;;30.17;17.96
61086;BME280;46967;48.876;2.136;2023-12-20T07:27:57;102226.34;;;30.01;18.72
61086;BME280;46967;48.876;2.136;2023-12-20T07:30:23;102221.84;;;29.82;18.68
61086;BME280;46967;48.876;2.136;2023-12-20T07:32:48;102233.97;;;30.15;18.35
61086;BME280;46967;48.876;2.136;2023-12-20T07:35:15;102225.34;;;30.70;17.70
61086;BME280;46967;48.876;2.136;2023-12-20T07:37:40;102236.19;;;29.91;18.35
61086;BME280;46967;48.876;2.136;2023-12-20T07:40:06;102231.44;;;30.04;18.48
61086;BME280;46967;48.876;2.136;2023-12-20T07:42:32;102234.22;;;29.93;18.65
61086;BME280;46967;48.876;2.136;2023-12-20T07:44:58;102233.84;;;30.46;17.86
61086;BME280;46967;48.876;2.136;2023-12-20T07:47:23;102224.03;;;30.84;17.40
61086;BME280;46967;48.876;2.136;2023-12-20T07:49:50;102231.31;;;30.45;18.00
61086;BME280;46967;48.876;2.136;2023-12-20T07:52:19;102230.44;;;30.64;17.95
61086;BME280;46967;48.876;2.136;2023-12-20T07:54:45;102233.78;;;29.88;18.70
61086;BME280;46967;48.876;2.136;2023-12-20T07:57:11;102239.31;;;30.06;18.56
61086;BME280;46967;48.876;2.136;2023-12-20T07:59:37;102243.00;;;30.53;17.76
61086;BME280;46967;48.876;2.136;2023-12-20T08:02:02;102231.94;;;30.86;17.58
61086;BME280;46967;48.876;2.136;2023-12-20T08:04:28;102226.28;;;30.89;17.45
61086;BME280;46967;48.876;2.136;2023-12-20T08:06:53;102223.78;;;30.78;17.64
61086;BME280;46967;48.876;2.136;2023-12-20T08:09:18;102229.31;;;30.66;17.76
61086;BME280;46967;48.876;2.136;2023-12-20T08:11:47;102232.25;;;30.73;17.75
61086;BME280;46967;48.876;2.136;2023-12-20T08:14:13;102221.56;;;30.63;17.83
61086;BME280;46967;48.876;2.136;2023-12-20T08:16:39;102243.09;;;30.81;17.63
61086;BME280;46967;48.876;2.136;2023-12-20T08:19:04;102233.06;;;30.93;17.64
61086;BME280;46967;48.876;2.136;2023-12-20T08:21:30;102237.59;;;30.73;17.66
61086;BME280;46967;48.876;2.136;2023-12-20T08:23:55;102231.44;;;30.63;17.95
61086;BME280;46967;48.876;2.136;2023-12-20T08:26:20;102234.72;;;31.41;17.45
61086;BME280;46967;48.876;2.136;2023-12-20T08:28:47;102235.53;;;31.14;17.85
61086;BME280;46967;48.876;2.136;2023-12-20T08:31:16;102227.06;;;31.47;17.35
61086;BME280;46967;48.876;2.136;2023-12-20T08:33:46;102221.34;;;31.32;17.52
61086;BME280;46967;48.876;2.136;2023-12-20T08:36:12;102235.41;;;31.53;17.18
61086;BME280;46967;48.876;2.136;2023-12-20T08:38:37;102232.56;;;31.45;17.03
61086;BME280;46967;48.876;2.136;2023-12-20T08:41:03;102238.63;;;30.52;18.11
61086;BME280;46967;48.876;2.136;2023-12-20T08:43:31;102235.34;;;30.98;17.80
61086;BME280;46967;48.876;2.136;2023-12-20T08:45:56;102235.59;;;30.85;18.00
61086;BME280;46967;48.876;2.136;2023-12-20T08:48:21;102238.72;;;31.28;17.55
61086;BME280;46967;48.876;2.136;2023-12-20T08:50:47;102233.66;;;31.24;17.42
61086;BME280;46967;48.876;2.136;2023-12-20T08:53:14;102236.31;;;31.34;17.47
61086;BME280;46967;48.876;2.136;2023-12-20T08:55:41;102235.59;;;31.32;17.43
61086;BME280;46967;48.876;2.136;2023-12-20T08:58:06;102240.19;;;31.77;16.86
61086;BME280;46967;48.876;2.136;2023-12-20T09:00:33;102240.22;;;31.40;17.02
61086;BME280;46967;48.876;2.136;2023-12-20T09:02:59;102238.72;;;30.70;17.87
61086;BME280;46967;48.876;2.136;2023-12-20T09:05:24;102237.94;;;31.17;17.73
61086;BME280;46967;48.876;2.136;2023-12-20T09:07:50;102248.66;;;30.41;18.58
61086;BME280;46967;48.876;2.136;2023-12-20T09:10:15;102245.25;;;31.25;17.67
61086;BME280;46967;48.876;2.136;2023-12-20T09:12:40;102253.34;;;31.43;17.66
61086;BME280;46967;48.876;2.136;2023-12-20T09:15:07;102244.44;;;31.98;17.18
61086;BME280;46967;48.876;2.136;2023-12-20T09:17:33;102251.59;;;30.57;18.12
61086;BME280;46967;48.876;2.136;2023-12-20T09:19:58;102249.97;;;31.69;17.35
61086;BME280;46967;48.876;2.136;2023-12-20T09:22:25;102241.41;;;32.55;16.69
61086;BME280;46967;48.876;2.136;2023-12-20T09:24:50;102235.88;;;32.75;16.48
61086;BME280;46967;48.876;2.136;2023-12-20T09:27:16;102243.50;;;32.88;16.28
61086;BME280;46967;48.876;2.136;2023-12-20T09:29:41;102233.06;;;32.40;16.52
61086;BME280;46967;48.876;2.136;2023-12-20T09:32:06;102230.53;;;32.83;16.37
61086;BME280;46967;48.876;2.136;2023-12-20T09:34:32;102236.56;;;31.69;17.64
61086;BME280;46967;48.876;2.136;2023-12-20T09:36:57;102232.22;;;32.40;16.74
61086;BME280;46967;48.876;2.136;2023-12-20T09:39:22;102240.25;;;31.68;17.50
61086;BME280;46967;48.876;2.136;2023-12-20T09:42:02;102245.56;;;32.67;16.51
61086;BME280;46967;48.876;2.136;2023-12-20T09:44:28;102251.34;;;31.45;17.28
61086;BME280;46967;48.876;2.136;2023-12-20T09:46:55;102263.38;;;32.50;16.50
61086;BME280;46967;48.876;2.136;2023-12-20T09:49:21;102262.28;;;32.79;16.39
61086;BME280;46967;48.876;2.136;2023-12-20T09:51:46;102270.34;;;33.06;16.51
61086;BME280;46967;48.876;2.136;2023-12-20T09:54:16;102267.22;;;32.66;16.57
61086;BME280;46967;48.876;2.136;2023-12-20T09:56:42;102264.13;;;32.07;17.01
61086;BME280;46967;48.876;2.136;2023-12-20T09:59:08;102255.53;;;32.57;16.74
61086;BME280;46967;48.876;2.136;2023-12-20T10:01:34;102255.78;;;32.64;16.47
61086;BME280;46967;48.876;2.136;2023-12-20T10:04:00;102263.44;;;33.03;16.48
61086;BME280;46967;48.876;2.136;2023-12-20T10:06:27;102257.78;;;33.14;16.25
61086;BME280;46967;48.876;2.136;2023-12-20T10:08:53;102258.63;;;33.49;16.22
61086;BME280;46967;48.876;2.136;2023-12-20T10:11:18;102260.31;;;33.50;15.94
61086;BME280;46967;48.876;2.136;2023-12-20T10:13:47;102260.94;;;33.79;15.72
61086;BME280;46967;48.876;2.136;2023-12-20T10:16:13;102244.88;;;33.18;16.16
61086;BME280;46967;48.876;2.136;2023-12-20T10:18:38;102252.63;;;32.95;16.54
61086;BME280;46967;48.876;2.136;2023-12-20T10:21:04;102247.50;;;33.44;16.01
61086;BME280;46967;48.876;2.136;2023-12-20T10:23:30;102234.25;;;31.56;18.03
61086;BME280;46967;48.876;2.136;2023-12-20T10:25:56;102237.88;;;32.55;17.06
61086;BME280;46967;48.876;2.136;2023-12-20T10:28:23;102234.53;;;32.71;16.66
61086;BME280;46967;48.876;2.136;2023-12-20T10:30:52;102227.47;;;33.04;16.30
61086;BME280;46967;48.876;2.136;2023-12-20T10:33:25;102229.44;;;32.94;16.76
61086;BME280;46967;48.876;2.136;2023-12-20T10:35:51;102230.16;;;32.33;17.02
61086;BME280;46967;48.876;2.136;2023-12-20T10:38:17;102230.63;;;33.26;16.50
61086;BME280;46967;48.876;2.136;2023-12-20T10:40:45;102233.72;;;33.13;16.60
61086;BME280;46967;48.876;2.136;2023-12-20T10:43:11;102233.91;;;33.54;16.43
61086;BME280;46967;48.876;2.136;2023-12-20T10:45:36;102232.63;;;33.24;16.39
61086;BME280;46967;48.876;2.136;2023-12-20T10:48:02;102231.34;;;33.36;16.04
61086;BME280;46967;48.876;2.136;2023-12-20T10:50:28;102228.50;;;33.11;16.79
61086;BME280;46967;48.876;2.136;2023-12-20T10:52:55;102212.03;;;31.64;17.60
61086;BME280;46967;48.876;2.136;2023-12-20T10:55:24;102208.44;;;33.24;16.68
61086;BME280;46967;48.876;2.136;2023-12-20T10:57:51;102203.59;;;32.66;17.01
61086;BME280;46967;48.876;2.136;2023-12-20T11:00:18;102208.75;;;33.20;16.53
61086;BME280;46967;48.876;2.136;2023-12-20T11:02:43;102186.44;;;32.94;16.90
61086;BME280;46967;48.876;2.136;2023-12-20T11:05:40;102175.47;;;32.61;17.33
61086;BME280;46967;48.876;2.136;2023-12-20T11:08:45;102176.56;;;32.68;17.11
61086;BME280;46967;48.876;2.136;2023-12-20T11:11:29;102176.84;;;33.93;16.14
61086;BME280;46967;48.876;2.136;2023-12-20T11:14:01;102170.72;;;33.66;16.21
61086;BME280;46967;48.876;2.136;2023-12-20T11:16:31;102179.69;;;33.24;16.39
61086;BME280;46967;48.876;2.136;2023-12-20T11:18:56;102183.91;;;33.27;16.74
61086;BME280;46967;48.876;2.136;2023-12-20T11:21:22;102176.25;;;32.71;17.16
61086;BME280;46967;48.876;2.136;2023-12-20T11:23:47;102173.59;;;32.79;17.03
61086;BME280;46967;48.876;2.136;2023-12-20T11:26:15;102166.41;;;33.82;16.30
61086;BME280;46967;48.876;2.136;2023-12-20T11:28:41;102157.28;;;33.66;16.57
61086;BME280;46967;48.876;2.136;2023-12-20T11:31:07;102169.91;;;34.56;15.79
61086;BME280;46967;48.876;2.136;2023-12-20T11:33:38;102160.28;;;34.62;15.60
61086;BME280;46967;48.876;2.136;2023-12-20T11:36:13;102153.44;;;33.85;16.23
61086;BME280;46967;48.876;2.136;2023-12-20T11:38:39;102159.06;;;33.33;17.01
61086;BME280;46967;48.876;2.136;2023-12-20T11:41:15;102158.31;;;34.06;16.19
61086;BME280;46967;48.876;2.136;2023-12-20T11:43:40;102145.03;;;33.88;16.43
61086;BME280;46967;48.876;2.136;2023-12-20T11:46:07;102151.41;;;34.37;16.06
61086;BME280;46967;48.876;2.136;2023-12-20T11:48:36;102139.81;;;34.20;16.04
61086;BME280;46967;48.876;2.136;2023-12-20T11:51:02;102129.22;;;34.35;15.97
61086;BME280;46967;48.876;2.136;2023-12-20T11:53:29;102130.78;;;34.69;15.47
61086;BME280;46967;48.876;2.136;2023-12-20T11:55:56;102150.75;;;34.02;16.38
61086;BME280;46967;48.876;2.136;2023-12-20T11:58:21;102146.97;;;34.77;15.59
61086;BME280;46967;48.876;2.136;2023-12-20T12:00:49;102154.50;;;35.21;15.35
61086;BME280;46967;48.876;2.136;2023-12-20T12:03:15;102146.69;;;35.03;15.54
61086;BME280;46967;48.876;2.136;2023-12-20T12:05:41;102156.94;;;34.43;15.83
61086;BME280;46967;48.876;2.136;2023-12-20T12:08:06;102142.28;;;34.54;15.87
61086;BME280;46967;48.876;2.136;2023-12-20T12:10:32;102150.47;;;34.86;15.94
61086;BME280;46967;48.876;2.136;2023-12-20T12:12:58;102149.84;;;34.59;15.94
61086;BME280;46967;48.876;2.136;2023-12-20T12:15:23;102150.59;;;34.20;16.29
61086;BME280;46967;48.876;2.136;2023-12-20T12:17:56;102150.00;;;34.74;15.88
61086;BME280;46967;48.876;2.136;2023-12-20T12:20:22;102147.03;;;35.00;15.86
61086;BME280;46967;48.876;2.136;2023-12-20T12:23:02;102145.50;;;34.41;16.23
61086;BME280;46967;48.876;2.136;2023-12-20T12:25:33;102142.31;;;33.72;17.21
61086;BME280;46967;48.876;2.136;2023-12-20T12:28:00;102141.66;;;33.78;17.26
61086;BME280;46967;48.876;2.136;2023-12-20T12:30:26;102135.59;;;33.92;17.08
61086;BME280;46967;48.876;2.136;2023-12-20T12:32:52;102133.72;;;34.51;16.46
61086;BME280;46967;48.876;2.136;2023-12-20T12:35:19;102123.59;;;34.53;16.43
61086;BME280;46967;48.876;2.136;2023-12-20T12:37:44;102116.72;;;34.50;16.38
61086;BME280;46967;48.876;2.136;2023-12-20T12:40:10;102110.97;;;35.01;16.24
61086;BME280;46967;48.876;2.136;2023-12-20T12:42:37;102112.03;;;35.54;15.80
61086;BME280;46967;48.876;2.136;2023-12-20T12:45:03;102108.81;;;35.51;15.50